createdAt,value
2022-08-11T00:02:04.722Z,99024.88
2022-08-11T00:07:07.822Z,99015.13
2022-08-11T00:12:34.064Z,99013.97
2022-08-11T00:17:36.972Z,99011.31
2022-08-11T00:22:41.962Z,99024.91
2022-08-11T00:27:44.958Z,99027.88
2022-08-11T00:32:56.237Z,99025.56
2022-08-11T00:38:00.237Z,99019.28
2022-08-11T00:43:20.727Z,99025.09
2022-08-11T00:48:22.694Z,99017.69
2022-08-11T00:53:50.264Z,99022.41
2022-08-11T00:59:35.238Z,99031.13
2022-08-11T01:05:23.224Z,99022.47
2022-08-11T01:10:54.851Z,99030.00
2022-08-11T01:16:58.134Z,99017.91
2022-08-11T01:22:24.166Z,99023.91
2022-08-11T01:28:10.793Z,99026.34
2022-08-11T01:33:37.786Z,99025.22
2022-08-11T01:39:01.407Z,99030.84
2022-08-11T01:44:38.426Z,99034.44
2022-08-11T01:50:08.001Z,99031.66
2022-08-11T01:55:26.898Z,99019.97
2022-08-11T02:00:33.276Z,99022.00
2022-08-11T02:06:01.406Z,99015.34
2022-08-11T02:11:25.042Z,99027.94
2022-08-11T02:16:58.037Z,99013.81
2022-08-11T02:22:33.714Z,99009.94
2022-08-11T02:27:53.018Z,99010.69
2022-08-11T02:33:23.583Z,99015.06
2022-08-11T02:38:34.075Z,99023.72
2022-08-11T02:43:50.996Z,99014.72
2022-08-11T02:49:30.956Z,99023.34
2022-08-11T02:54:44.840Z,99023.34
2022-08-11T02:59:59.834Z,99029.25
2022-08-11T03:05:21.107Z,99016.31
2022-08-11T03:10:28.904Z,99028.13
2022-08-11T03:16:27.895Z,99033.63
2022-08-11T03:22:01.124Z,99036.00
2022-08-11T03:27:31.377Z,99035.19
2022-08-11T03:32:42.770Z,99032.06
2022-08-11T03:37:54.263Z,99027.72
2022-08-11T03:43:08.008Z,99030.09
2022-08-11T03:48:14.297Z,99039.84
2022-08-11T03:53:53.661Z,99032.75
2022-08-11T03:59:30.736Z,99027.25
2022-08-11T04:05:09.946Z,99016.31
2022-08-11T04:10:42.413Z,99022.63
2022-08-11T04:16:16.604Z,99025.00
2022-08-11T04:21:43.206Z,99005.72
2022-08-11T04:27:37.275Z,99010.06
2022-08-11T04:32:56.585Z,99019.09
2022-08-11T04:38:40.424Z,99020.25
2022-08-11T04:44:02.728Z,99029.66
2022-08-11T04:49:54.270Z,99030.00
2022-08-11T04:55:52.031Z,99025.63
2022-08-11T05:01:43.852Z,99017.31
2022-08-11T05:07:15.045Z,99018.03
2022-08-11T05:12:36.020Z,99019.13
2022-08-11T05:18:34.185Z,99013.56
2022-08-11T05:23:59.503Z,99021.34
2022-08-11T05:29:24.147Z,99030.72
2022-08-11T05:34:49.861Z,99033.34
2022-08-11T05:40:14.660Z,99033.22
2022-08-11T05:45:57.258Z,99032.69
2022-08-11T05:51:25.554Z,99029.38
2022-08-11T05:56:34.916Z,99033.13
2022-08-11T06:01:36.950Z,99044.75
2022-08-11T06:06:47.131Z,99035.13
2022-08-11T06:11:50.323Z,99047.56
2022-08-11T06:16:57.070Z,99044.91
2022-08-11T06:22:01.186Z,99047.72
2022-08-11T06:27:12.739Z,99043.41
2022-08-11T06:32:16.563Z,99050.00
2022-08-11T06:37:36.468Z,99044.69
2022-08-11T06:42:47.782Z,99050.69
2022-08-11T06:47:50.125Z,99066.34
2022-08-11T06:52:53.957Z,99059.91
2022-08-11T06:58:14.857Z,99062.97
2022-08-11T07:03:19.691Z,99065.41
2022-08-11T07:09:17.827Z,99065.59
2022-08-11T07:14:45.580Z,99052.94
2022-08-11T07:20:20.925Z,99050.56
2022-08-11T07:25:43.484Z,99055.75
2022-08-11T07:30:47.606Z,99060.47
2022-08-11T07:35:57.727Z,99054.66
2022-08-11T07:41:00.018Z,99055.84
2022-08-11T07:46:23.117Z,99054.41
2022-08-11T07:51:43.852Z,99054.19
2022-08-11T07:57:07.620Z,99048.09
2022-08-11T08:02:29.467Z,99051.78
2022-08-11T08:07:51.694Z,99055.50
2022-08-11T08:13:16.557Z,99051.69
2022-08-11T08:18:26.077Z,99041.88
2022-08-11T08:23:35.623Z,99041.38
2022-08-11T08:28:37.740Z,99043.47
2022-08-11T08:33:42.354Z,99033.19
2022-08-11T08:38:54.325Z,99023.03
2022-08-11T08:44:27.750Z,99024.63
2022-08-11T08:49:40.511Z,99015.19
2022-08-11T08:55:04.331Z,99004.94
2022-08-11T09:00:07.646Z,99007.56
2022-08-11T09:05:12.293Z,99008.97
2022-08-11T09:10:17.466Z,99015.31
2022-08-11T09:15:20.155Z,99012.84
2022-08-11T09:20:25.898Z,98999.50
2022-08-11T09:25:50.056Z,99003.50
2022-08-11T09:30:56.343Z,99006.69
2022-08-11T09:36:20.331Z,98990.19
2022-08-11T09:41:25.563Z,98997.53
2022-08-11T09:46:30.482Z,98975.88
2022-08-11T09:51:34.331Z,98984.38
2022-08-11T09:56:55.253Z,98980.22
2022-08-11T10:02:00.290Z,98969.53
2022-08-11T10:07:06.958Z,98983.03
2022-08-11T10:12:12.181Z,98970.94
2022-08-11T10:17:16.165Z,98962.56
2022-08-11T10:22:37.769Z,98960.94
2022-08-11T10:28:28.712Z,98968.09
2022-08-11T10:33:36.581Z,98970.94
2022-08-11T10:38:40.658Z,98972.19
2022-08-11T10:44:03.126Z,98958.53
2022-08-11T10:49:08.318Z,98945.69
2022-08-11T10:54:29.661Z,98941.91
2022-08-11T10:59:34.652Z,98938.09
2022-08-11T11:04:51.872Z,98923.19
2022-08-11T11:10:04.039Z,98928.78
2022-08-11T11:15:25.576Z,98921.56
2022-08-11T11:20:36.938Z,98923.91
2022-08-11T11:26:06.759Z,98924.44
2022-08-11T11:31:26.751Z,98918.16
2022-08-11T11:36:46.703Z,98901.94
2022-08-11T11:41:52.071Z,98899.44
2022-08-11T11:46:54.269Z,98894.91
2022-08-11T11:51:58.309Z,98883.13
2022-08-11T11:57:22.362Z,98891.03
2022-08-11T12:02:24.519Z,98896.41
2022-08-11T12:07:45.183Z,98897.38
2022-08-11T12:13:24.497Z,98883.47
2022-08-11T12:18:26.496Z,98893.13
2022-08-11T12:23:47.704Z,98880.47
2022-08-11T12:28:50.662Z,98868.00
2022-08-11T12:33:53.977Z,98866.06
2022-08-11T12:38:56.463Z,98851.66
2022-08-11T12:44:23.428Z,98845.66
2022-08-11T12:49:49.564Z,98853.03
2022-08-11T12:54:57.971Z,98839.59
2022-08-11T13:00:27.013Z,98828.53
2022-08-11T13:05:33.202Z,98820.94
2022-08-11T13:11:03.757Z,98825.84
2022-08-11T13:16:07.096Z,98825.56
2022-08-11T13:21:20.388Z,98804.81
2022-08-11T13:26:36.948Z,98803.03
2022-08-11T13:31:47.222Z,98819.19
2022-08-11T13:36:52.728Z,98793.81
2022-08-11T13:41:57.281Z,98793.44
2022-08-11T13:47:04.348Z,98787.84
2022-08-11T13:52:10.129Z,98787.34
2022-08-11T13:58:07.134Z,98777.50
2022-08-11T14:02:42.719Z,98781.84
2022-08-11T14:08:02.382Z,98785.66
2022-08-11T14:13:41.235Z,98779.16
2022-08-11T14:18:51.593Z,98775.69
2022-08-11T14:24:01.423Z,98766.91
2022-08-11T14:29:08.685Z,98776.28
2022-08-11T14:34:13.248Z,98766.03
2022-08-11T14:39:18.540Z,98761.31
2022-08-11T14:44:39.785Z,98767.59
2022-08-11T14:49:56.166Z,98753.66
2022-08-11T14:55:19.908Z,98755.59
2022-08-11T15:00:22.381Z,98768.16
2022-08-11T15:05:25.958Z,98745.56
2022-08-11T15:10:28.634Z,98752.09
2022-08-11T15:15:50.383Z,98737.03
2022-08-11T15:21:12.049Z,98736.09
2022-08-11T15:26:48.350Z,98730.59
2022-08-11T15:32:08.672Z,98732.31
2022-08-11T15:37:27.361Z,98736.13
2022-08-11T15:42:50.026Z,98731.97
2022-08-11T15:48:05.520Z,98731.84
2022-08-11T15:53:30.357Z,98724.06
2022-08-11T15:59:10.642Z,98717.59
2022-08-11T16:04:24.471Z,98721.72
2022-08-11T16:09:51.907Z,98721.72
2022-08-11T16:15:19.953Z,98711.53
2022-08-11T16:20:26.213Z,98713.91
2022-08-11T16:27:04.999Z,98720.28
2022-08-11T16:30:52.380Z,98711.59
2022-08-11T16:36:13.827Z,98705.41
2022-08-11T16:41:38.649Z,98706.69
2022-08-11T16:46:58.903Z,98719.75
2022-08-11T16:52:04.130Z,98706.41
2022-08-11T16:57:27.610Z,98707.22
2022-08-11T17:02:52.782Z,98708.63
2022-08-11T17:08:14.984Z,98711.44
2022-08-11T17:13:20.776Z,98706.22
2022-08-11T17:18:43.414Z,98711.50
2022-08-11T17:23:52.044Z,98710.31
2022-08-11T17:28:59.459Z,98711.38
2022-08-11T17:34:23.076Z,98705.69
2022-08-11T17:39:29.458Z,98707.53
2022-08-11T17:44:52.320Z,98706.94
2022-08-11T17:49:55.342Z,98710.97
2022-08-11T17:55:51.917Z,98713.47
2022-08-11T18:00:55.178Z,98716.53
2022-08-11T18:05:59.654Z,98716.50
2022-08-11T18:12:10.409Z,98721.75
2022-08-11T18:17:06.237Z,98737.56
2022-08-11T18:22:32.115Z,98732.56
2022-08-11T18:27:55.265Z,98737.03
2022-08-11T18:39:04.948Z,98743.56
2022-08-11T18:44:29.259Z,98748.13
2022-08-11T18:50:03.505Z,98748.78
2022-08-11T18:55:35.448Z,98750.09
2022-08-11T19:00:58.579Z,98746.59
2022-08-11T19:06:38.478Z,98749.91
2022-08-11T19:12:03.859Z,98740.38
2022-08-11T19:17:43.586Z,98740.50
2022-08-11T19:23:07.918Z,98740.75
2022-08-11T19:28:28.681Z,98753.69
2022-08-11T19:34:00.397Z,98738.88
2022-08-11T19:39:32.095Z,98741.94
2022-08-11T19:44:53.651Z,98755.22
2022-08-11T19:50:21.509Z,98746.22
2022-08-11T19:55:48.597Z,98756.09
2022-08-11T20:01:09.264Z,98755.53
2022-08-11T20:06:30.391Z,98754.53
2022-08-11T20:11:54.686Z,98761.66
2022-08-11T20:17:16.608Z,98764.97
2022-08-11T20:22:38.074Z,98767.84
2022-08-11T20:28:02.337Z,98759.84
2022-08-11T20:33:23.727Z,98759.72
2022-08-11T20:38:48.568Z,98763.44
2022-08-11T20:44:10.103Z,98762.09
2022-08-11T20:49:40.892Z,98764.63
2022-08-11T20:55:18.985Z,98770.28
2022-08-11T21:00:47.507Z,98775.69
2022-08-11T21:06:11.144Z,98772.88
2022-08-11T21:11:33.581Z,98776.69
2022-08-11T21:16:55.812Z,98765.09
2022-08-11T21:22:19.712Z,98768.66
2022-08-11T21:27:43.244Z,98770.66
2022-08-11T21:33:04.218Z,98785.97
2022-08-11T21:38:25.104Z,98787.94
2022-08-11T21:43:49.950Z,98797.00
2022-08-11T21:49:10.804Z,98791.94
2022-08-11T21:54:37.337Z,98791.53
2022-08-11T22:00:11.748Z,98786.66
2022-08-11T22:05:35.386Z,98780.97
2022-08-11T22:10:56.689Z,98802.44
2022-08-11T22:16:18.045Z,98796.47
2022-08-11T22:22:03.625Z,98795.88
2022-08-11T22:27:20.008Z,98801.41
2022-08-11T22:32:41.701Z,98795.53
2022-08-11T22:38:05.167Z,98792.09
2022-08-11T22:43:26.068Z,98793.84
2022-08-11T22:48:49.541Z,98791.31
2022-08-11T22:54:13.236Z,98792.06
2022-08-11T22:59:35.265Z,98796.19
2022-08-11T23:04:57.599Z,98787.34
2022-08-11T23:10:18.411Z,98783.09
2022-08-11T23:15:39.996Z,98784.22
2022-08-11T23:21:02.495Z,98788.59
2022-08-11T23:26:24.004Z,98793.72
2022-08-11T23:31:51.257Z,98784.00
2022-08-11T23:37:13.860Z,98786.59
2022-08-11T23:42:36.038Z,98793.09
2022-08-11T23:47:57.971Z,98784.63
2022-08-11T23:53:18.926Z,98788.84
2022-08-11T23:58:39.213Z,98778.75
